Camilla Desgagnes — VOKF — position and weather

sailwx.info

Track history (hours):
 
Tides and Currents Weather Stations Pressure Air Temp Water Temp Dewpoint Dewpoint Depression Visibility Wind Speed Wind Dir Waves Ship Positions

Camilla Desgagnes

Last reported at 2017-Nov-15 00:00 UTC. Time now 2017-Nov-21 06:25 UTC.
Position N 45°30' W 073°30'.

Length 133 m; draft 5 m.

Type: Cargo ship. MMSI: 316003543.

Wind from 020 at 2 knots

Air temperature 2.8 ° C
Dewpoint 3.0 ° C

Date/timePositionNaut miles runAvg speedWind from/ knotsBaromVisibWave heightAir tempDewpointWater temp
2017-Nov-15 00:00N 45°30' W 073°30'0 0.0 020 / 2 2.8 3.0
2017-Nov-14 23:00N 45°30' W 073°30'0 0.0 360 / 4 2.9 3.1
2017-Nov-14 22:00N 45°30' W 073°30'0 0.0 350 / 4 3.1 3.3
2017-Nov-14 21:00N 45°30' W 073°30'0 0.0 350 / 3 3.1 3.3
2017-Nov-14 20:00N 45°30' W 073°30'0 0.0 350 / 5 3.0 3.2
2017-Nov-14 19:00N 45°30' W 073°30'0 0.0 360 / 4 2.8 3.0
2017-Nov-14 18:00N 45°30' W 073°30'0 0.0 350 / 4 2.6 2.8
2017-Nov-14 17:00N 45°30' W 073°30'0 0.0 360 / 5 2.2 2.4
2017-Nov-14 16:00N 45°30' W 073°30'0 0.0 360 / 5 1.9 2.0
2017-Nov-14 15:00N 45°30' W 073°30'0 0.0 010 / 5 1.6 1.8
2017-Nov-14 14:00N 45°30' W 073°30'0 0.0 360 / 4 1.3 1.5
2017-Nov-14 13:00N 45°30' W 073°30'0 0.0 360 / 4 1.1 1.3
2017-Nov-14 12:00N 45°30' W 073°30'0 0.0 010 / 4 1.0 1.2
2017-Nov-14 11:00N 45°30' W 073°30'0 0.0 010 / 3 1.0 1.2
2017-Nov-14 09:00N 45°30' W 073°30'0 0.0 010 / 5 0.9 1.0
2017-Nov-14 08:00N 45°30' W 073°30'0 0.0 360 / 5 0.8 0.9
2017-Nov-14 07:00N 45°30' W 073°30'0 0.0 010 / 3 0.6 0.8
2017-Nov-14 06:00N 45°30' W 073°30'0 0.0 010 / 3 0.6 0.8
2017-Nov-14 05:00N 45°30' W 073°30'0 0.0 360 / 3 0.5 0.7
2017-Nov-14 04:00N 45°30' W 073°30'0 0.0 010 / 3 0.7 0.8
2017-Nov-14 03:00N 45°30' W 073°30'0 0.0 010 / 4 1.0 1.0
2017-Nov-14 02:00N 45°30' W 073°30'0 0.0 350 / 5 0.9 1.0
2017-Nov-14 01:00N 45°30' W 073°30'0 0.0 360 / 4 0.9 1.0
2017-Nov-14 00:00N 45°30' W 073°30'0 0.0 360 / 4 0.6 0.8
2017-Nov-13 23:00N 45°30' W 073°30'0 0.0 010 / 3 0.8 0.9
2017-Nov-13 22:00N 45°30' W 073°30'0 0.0 350 / 5 0.7 0.8
2017-Nov-13 21:00N 45°30' W 073°30'0 0.0 010 / 3 0.8 1.0
2017-Nov-13 20:00N 45°30' W 073°30'0 0.0 010 / 2 0.9 1.1
2017-Nov-13 19:00N 45°30' W 073°30'0 0.0 350 / 5 0.4 0.6
2017-Nov-13 18:00N 45°30' W 073°30'0 0.0 350 / 5 -0.0 0.2
2017-Nov-13 17:00N 45°30' W 073°30'0 0.0 360 / 4 -0.3-0.0
2017-Nov-13 16:00N 45°30' W 073°30'0 0.0 360 / 5 -0.7-0.5
2017-Nov-13 15:00N 45°30' W 073°30'0 0.0 360 / 6 -0.9-0.6
2017-Nov-13 14:00N 45°30' W 073°30'0 0.0 360 / 5 -1.3-1.1
2017-Nov-13 13:00N 45°30' W 073°30'0 0.0 350 / 5 -1.9-1.6
2017-Nov-13 12:00N 45°30' W 073°30'0 0.0 340 / 6 -2.1-1.9
2017-Nov-13 11:00N 45°30' W 073°30'0 0.0 340 / 5 -2.5-2.3
2017-Nov-13 10:00N 45°30' W 073°30'0 0.0 340 / 5 -2.1-1.8
2017-Nov-13 09:00N 45°30' W 073°30'0 0.0 340 / 3 -1.9-1.6
2017-Nov-13 08:00N 45°30' W 073°30'0 0.0 340 / 4 -1.8-1.6
2017-Nov-13 07:00N 45°30' W 073°30'0 0.0 340 / 4 -1.5-1.3
2017-Nov-13 06:00N 45°30' W 073°30'0 0.0 350 / 3 -0.8-0.6
2017-Nov-13 05:00N 45°30' W 073°30'0 0.0 360 / 4 -0.6-0.5
2017-Nov-13 04:00N 45°30' W 073°30'0 0.0 360 / 1 -0.1-0.0
2017-Nov-13 03:00N 45°30' W 073°30'0 0.0 020 / 1 -0.1-0.0
2017-Nov-13 02:00N 45°30' W 073°30'0 0.0 110 / 2 0.5 0.6
2017-Nov-13 01:00N 45°30' W 073°30'0 0.0 040 / 1 0.2 0.3
2017-Nov-13 00:00N 45°30' W 073°30'0 0.0 360 / 1 0.6 0.7
2017-Nov-12 23:00N 45°30' W 073°30'0 0.0 040 / 1 0.9 1.0
2017-Nov-12 22:00N 45°30' W 073°30'0 0.0 090 / 2 1.8 1.8
2017-Nov-12 21:00N 45°30' W 073°30'0 0.0 130 / 1 2.3 2.3
2017-Nov-12 20:00N 45°30' W 073°30'0 0.0 110 / 1 2.1 2.1
2017-Nov-12 19:00N 45°30' W 073°30'0 0.0 040 / 1 1.8 1.9
2017-Nov-12 18:00N 45°30' W 073°30'0 0.0 030 / 3 1.4 1.5
2017-Nov-12 17:00N 45°30' W 073°30'0 0.0 340 / 3 0.3 0.4
2017-Nov-12 16:00N 45°30' W 073°30'0 0.0 090 / 2 -0.5-0.3
2017-Nov-12 15:00N 45°30' W 073°30'0 0.0 360 / 2 -1.3-1.2
2017-Nov-12 14:00N 45°30' W 073°30'0 0.0 090 / 2 -2.1-2.0
2017-Nov-12 13:00N 45°30' W 073°30'0 0.0 070 / 2 -2.4-2.3
2017-Nov-12 12:00N 45°30' W 073°30'0 0.0 120 / 3 -2.6-2.5
2017-Nov-12 11:00N 45°30' W 073°30'0 0.0 110 / 2 -2.7-2.6
2017-Nov-12 10:00N 45°30' W 073°30'0 0.0 130 / 2 -2.8-2.7
2017-Nov-12 09:00N 45°30' W 073°30'0 0.0 150 / 4 -2.9-2.8
2017-Nov-12 08:00N 45°30' W 073°30'0 0.0 120 / 3 -3.2-3.1
2017-Nov-12 07:00N 45°30' W 073°30'0 0.0 110 / 3 -3.0-2.9
2017-Nov-12 06:00N 45°30' W 073°30'0 0.0 120 / 4 -3.2-3.1
2017-Nov-12 05:00N 45°30' W 073°30'0 0.0 120 / 4 -3.0-2.8
2017-Nov-12 04:00N 45°30' W 073°30'0 0.0 150 / 3 -2.4-2.3
2017-Nov-12 03:00N 45°30' W 073°30'0 0.0 200 / 1 -2.4-2.3
2017-Nov-12 02:00N 45°30' W 073°30'0 0.0 210 / 2 -2.3-2.2
2017-Nov-12 01:00N 45°30' W 073°30'0 0.0 190 / 4 -3.1-2.9
2017-Nov-12 00:00N 45°30' W 073°30'0 0.0 210 / 3 -2.5-2.4
2017-Nov-11 23:00N 45°30' W 073°30'0 0.0 200 / 3 -2.8-2.7
2017-Nov-11 22:00N 45°30' W 073°30'0 0.0 200 / 5 -2.5-2.4
2017-Nov-11 21:00N 45°30' W 073°30'0 0.0 210 / 3 -1.6-1.5
2017-Nov-11 20:00N 45°30' W 073°30'0 0.0 210 / 4 -1.5-1.4
2017-Nov-11 19:00N 45°30' W 073°30'0 0.0 240 / 4 -1.6-1.6
2017-Nov-11 18:00N 45°30' W 073°30'0 0.0 210 / 4 -1.9-1.8
2017-Nov-11 17:00N 45°30' W 073°30'0 0.0 230 / 4 -2.8-2.7
2017-Nov-11 16:00N 45°30' W 073°30'0 0.0 240 / 5 -3.9-3.8
2017-Nov-11 15:00N 45°30' W 073°30'0 0.0 230 / 5 -5.5-5.4
2017-Nov-11 14:00N 45°30' W 073°30'0 0.0 250 / 6 -6.6-6.5
2017-Nov-11 13:00N 45°30' W 073°30'0 0.0 240 / 8 -7.4-7.3
2017-Nov-11 12:00N 45°30' W 073°30'0 0.0 240 / 6 -8.2-8.2
2017-Nov-11 11:00N 45°30' W 073°30'0 0.0 240 / 6 -8.0-7.9
2017-Nov-11 10:00N 45°30' W 073°30'0 0.0 240 / 6 -8.0-7.9
2017-Nov-11 09:00N 45°30' W 073°30'0 0.0 250 / 6 -8.1-8.0
2017-Nov-11 08:00N 45°30' W 073°30'0 0.0 250 / 5 -8.2-8.1
2017-Nov-11 07:00N 45°30' W 073°30'0 0.0 270 / 6 -8.3-8.2
2017-Nov-10 23:00N 45°30' W 073°30'0 0.0 290 / 9 -4.5-4.4
2017-Nov-10 22:00N 45°30' W 073°30'0 0.0 290 / 10 -4.3-4.2
2017-Nov-10 21:00N 45°30' W 073°30'0 0.0 270 / 6 -4.1-4.1
2017-Nov-10 20:00N 45°30' W 073°30'0 0.0 290 / 11 -4.3-4.3
2017-Nov-10 19:00N 45°30' W 073°30'0 0.0 270 / 10 -4.8-4.7
2017-Nov-10 18:00N 45°30' W 073°30'0 0.0 300 / 8 -5.1-5.1
2017-Nov-10 17:00N 45°30' W 073°30'0 0.0 290 / 13 -5.7-5.7
2017-Nov-10 16:00N 45°30' W 073°30'0 0.0 260 / 8 -6.3-6.3
2017-Nov-10 15:00N 45°30' W 073°30'0 0.0 270 / 7 -6.8-6.7
2017-Nov-10 14:00N 45°30' W 073°30'0 0.0 280 / 11 -7.8-7.8
2017-Nov-10 13:00N 45°30' W 073°30'0 0.0 260 / 9 -7.6-7.5
2017-Nov-10 12:00N 45°30' W 073°30'0 0.0 270 / 12 -7.6-7.5
2017-Nov-10 11:00N 45°30' W 073°30'0 0.0 260 / 10 -6.1-6.0
2017-Nov-10 10:00N 45°30' W 073°30'0 0.0 270 / 12 -5.1-5.0
2017-Nov-10 09:00N 45°30' W 073°30'0 0.0 290 / 9 -3.4-3.2
2017-Nov-10 08:00N 45°30' W 073°30'0 0.0 270 / 9 -1.9-1.7
2017-Nov-10 07:00N 45°30' W 073°30'0 0.0 270 / 10 0.2 0.6
2017-Nov-10 06:00N 45°30' W 073°30'0 0.0 260 / 8 1.2 1.6
2017-Nov-10 05:00N 45°30' W 073°30'0 0.0 280 / 8 1.3 1.9
2017-Nov-10 04:00N 45°30' W 073°30'0 0.0 230 / 7 5.0 5.7
2017-Nov-10 03:00N 45°30' W 073°30'0 0.0 170 / 9 7.2 7.8
2017-Nov-10 02:00N 45°30' W 073°30'0 0.0 170 / 11 7.0 7.6
2017-Nov-10 01:00N 45°30' W 073°30'0 0.0 180 / 8 6.7 7.3
2017-Nov-10 00:00N 45°30' W 073°30'0 0.0 180 / 6 6.7 7.2
2017-Nov-09 23:00N 45°30' W 073°30'0 0.0 150 / 8 6.8 7.4
2017-Nov-09 22:00N 45°30' W 073°30'0 0.0 150 / 10 6.8 7.4
2017-Nov-09 14:00N 45°30' W 073°30'0 0.0 180 / 5 4.5 5.0
2017-Nov-09 13:00N 45°30' W 073°30'0 0.0 160 / 4 3.8 4.3
2017-Nov-09 12:00N 45°30' W 073°30'0 0.0 190 / 1 2.9 3.4
2017-Nov-09 11:00N 45°30' W 073°30'0 0.0 200 / 2 2.4 2.9
2017-Nov-09 10:00N 45°30' W 073°30'0 0.0 200 / 2 2.7 3.2
2017-Nov-09 09:00N 45°30' W 073°30'0 0.0 220 / 1 3.0 3.5
2017-Nov-09 08:00N 45°30' W 073°30'0 0.0 200 / 3 3.0 3.5
2017-Nov-09 07:00N 45°30' W 073°30'0 0.0 220 / 1 3.6 4.1
2017-Nov-09 06:00N 45°30' W 073°30'0 0.0 200 / 3 3.5 4.1
2017-Nov-09 05:00N 45°30' W 073°30'0 0.0 210 / 2 4.4 5.0
2017-Nov-09 04:00N 45°30' W 073°30'0 0.0 230 / 2 4.9 5.5
2017-Nov-09 03:00N 45°30' W 073°30'0 0.0 200 / 3 4.9 5.5
2017-Nov-09 01:00N 45°30' W 073°30'0 0.0 200 / 2 5.1 5.7
2017-Nov-09 00:00N 45°30' W 073°30'0 0.0 150 / 3 5.7 6.3
2017-Nov-08 23:00N 45°30' W 073°30'0 0.0 200 / 2 5.7 6.4
2017-Nov-08 22:00N 45°30' W 073°30'0 0.0 200 / 3 5.6 6.2
2017-Nov-08 21:00N 45°30' W 073°30'0 0.0 220 / 3 6.7 7.3
2017-Nov-08 20:00N 45°30' W 073°30'0 0.0 220 / 3 6.4 7.0
2017-Nov-08 19:00N 45°30' W 073°30'0 0.0 200 / 5 5.5 6.1
2017-Nov-08 18:00N 45°30' W 073°30'0 0.0 170 / 6 5.5 6.0
2017-Nov-08 17:00N 45°30' W 073°30'0 0.0 170 / 3 4.6 5.2
2017-Nov-08 16:00N 45°30' W 073°30'0 0.0 200 / 5 3.4 3.9
2017-Nov-08 15:00N 45°30' W 073°30'0 0.0 170 / 4 2.5 3.1
2017-Nov-08 14:00N 45°30' W 073°30'0 0.0 160 / 4 1.9 2.5
2017-Nov-08 13:00N 45°30' W 073°30'0 0.0 170 / 4 1.9 2.5
2017-Nov-08 12:00N 45°30' W 073°30'0 0.0 160 / 3 1.8 2.5
2017-Nov-08 11:00N 45°30' W 073°30'0 0.0 160 / 3 1.1 1.7
2017-Nov-08 10:00N 45°30' W 073°30'0 0.0 150 / 4 1.1 1.7
2017-Nov-08 09:00N 45°30' W 073°30'0 0.0 140 / 3 1.5 2.1
2017-Nov-08 08:00N 45°30' W 073°30'0 0.0 210 / 1 1.5 2.1
2017-Nov-08 07:00N 45°30' W 073°30'0 0.0 200 / 2 1.4 1.9
2017-Nov-08 06:00N 45°30' W 073°30'0 0.0 210 / 1 1.6 2.1
2017-Nov-08 05:00N 45°30' W 073°30'0 0.0 230 / 2 1.8 2.3
2017-Nov-08 04:00N 45°30' W 073°30'0 0.0 240 / 1 2.4 3.0
2017-Nov-08 03:00N 45°30' W 073°30'0 0.0 240 / 2 2.3 2.912.3
2017-Nov-08 02:00N 45°30' W 073°30'0 0.0 210 / 3 2.6 3.212.3
2017-Nov-08 01:00N 45°30' W 073°30'0 0.0 190 / 4 3.2 3.812.0
2017-Nov-08 00:00N 45°30' W 073°30'124.4 240 / 4 3.5 4.012.1
2017-Nov-07 23:56N 45°31' W 073°31'1 1.9
2017-Nov-07 23:12N 45°30' W 073°31'0 2.0
2017-Nov-07 23:00N 45°29' W 073°31'1118.2
2017-Nov-07 23:00N 45°30' W 073°30'2 3.5 240 / 5 3.4 4.012.1
2017-Nov-07 22:31N 45°28' W 073°30'1 1.8
2017-Nov-07 22:00N 45°27' W 073°30'3162.9
2017-Nov-07 22:00N 45°30' W 073°30'4 7.9 230 / 4 3.6 4.211.8
2017-Nov-07 21:31N 45°26' W 073°30'2 3.5
2017-Nov-07 21:01N 45°25' W 073°31'167.6
2017-Nov-07 21:00N 45°24' W 073°30'3 5.3 290 / 4 4.7 5.312.2
2017-Nov-07 20:30N 45°24' W 073°34'0 0.5
2017-Nov-07 20:01N 45°24' W 073°34'291.0
2017-Nov-07 20:00N 45°24' W 073°36'1 1.8 250 / 5 4.5 5.112.1
2017-Nov-07 19:30N 45°24' W 073°35'0 0.5
2017-Nov-07 19:00N 45°24' W 073°35'170.0
2017-Nov-07 19:00N 45°24' W 073°36'1 0.7 250 / 7 4.3 4.9
2017-Nov-07 18:03N 45°24' W 073°35'111.7
2017-Nov-07 18:00N 45°24' W 073°36'1 5.0 270 / 5 3.4 4.0
2017-Nov-07 17:51N 45°24' W 073°35'0 0.0
2017-Nov-07 17:27N 45°24' W 073°35'1 1.5
2017-Nov-07 17:00N 45°24' W 073°36'117.4 260 / 4 3.3 3.9
2017-Nov-07 16:57N 45°24' W 073°35'0 0.0
2017-Nov-07 16:27N 45°24' W 073°35'1 1.5
2017-Nov-07 16:00N 45°24' W 073°36'1 0.9 270 / 3 2.8 3.4
2017-Nov-07 15:12N 45°24' W 073°35'1 3.3
2017-Nov-07 15:00N 45°24' W 073°36'1 7.8 330 / 2 2.7 3.3
2017-Nov-07 14:54N 45°24' W 073°35'0 0.0
2017-Nov-07 14:12N 45°24' W 073°35'0 0.0
2017-Nov-07 14:00N 45°24' W 073°35'167.7
2017-Nov-07 14:00N 45°24' W 073°36'1 1.4 290 / 2 2.4 3.0
2017-Nov-07 13:30N 45°24' W 073°35'1 1.4
2017-Nov-07 13:00N 45°24' W 073°36'1 7.7 330 / 6 1.4 2.0
2017-Nov-07 12:54N 45°24' W 073°35'0 0.0
2017-Nov-07 12:30N 45°24' W 073°35'1 1.4
2017-Nov-07 12:00N 45°24' W 073°36'1 3.7 300 / 3 1.9 2.6
2017-Nov-07 11:48N 45°24' W 073°35'0 0.0
2017-Nov-07 11:06N 45°24' W 073°35'1 6.4
2017-Nov-07 11:00N 45°24' W 073°36'1 7.8 320 / 2 2.0 2.6
2017-Nov-07 10:54N 45°24' W 073°35'0 0.0
2017-Nov-07 10:18N 45°24' W 073°35'0 0.0
2017-Nov-07 10:00N 45°24' W 073°35'167.7
2017-Nov-07 10:00N 45°24' W 073°36'1 1.4 300 / 3 2.2 2.8
2017-Nov-07 09:30N 45°24' W 073°35'0 0.0
2017-Nov-07 09:00N 45°24' W 073°35'168.4
2017-Nov-07 09:00N 45°24' W 073°36'1 1.4 300 / 4 2.3 3.0
2017-Nov-07 08:30N 45°24' W 073°35'0 0.0
2017-Nov-07 08:00N 45°24' W 073°35'169.6
2017-Nov-07 08:00N 45°24' W 073°36'1 1.4 320 / 2 2.0 2.7
2017-Nov-07 07:30N 45°24' W 073°35'0 0.0
2017-Nov-07 07:00N 45°24' W 073°35'167.7
2017-Nov-07 07:00N 45°24' W 073°36'1 1.4 330 / 5 2.1 2.8
2017-Nov-07 06:30N 45°24' W 073°35'0 0.0
2017-Nov-07 06:00N 45°24' W 073°35'168.0
2017-Nov-07 06:00N 45°24' W 073°36'1 0.9 320 / 3 2.5 3.2
2017-Nov-07 05:12N 45°24' W 073°35'0 0.0
2017-Nov-07 05:00N 45°24' W 073°35'169.9
2017-Nov-07 05:00N 45°24' W 073°36'1 1.2 320 / 3 2.6 3.4
2017-Nov-07 04:24N 45°24' W 073°35'0 0.0
2017-Nov-07 04:00N 45°24' W 073°35'167.7
2017-Nov-07 04:00N 45°24' W 073°36'1 1.2 320 / 4 3.0 3.8
2017-Nov-07 03:24N 45°24' W 073°35'0 0.0
2017-Nov-07 03:00N 45°24' W 073°35'169.6
2017-Nov-07 03:00N 45°24' W 073°36'1 1.4 320 / 4 3.5 4.3
2017-Nov-07 02:30N 45°24' W 073°35'1 1.4
2017-Nov-07 02:00N 45°24' W 073°36'1 1.8 320 / 3 3.8 4.6
2017-Nov-07 01:36N 45°24' W 073°35'0 0.0
2017-Nov-07 01:30N 45°24' W 073°35'0 0.0
2017-Nov-07 01:00N 45°24' W 073°35'170.0
2017-Nov-07 01:00N 45°24' W 073°36'1 1.2 300 / 5 4.6 5.4
2017-Nov-07 00:24N 45°24' W 073°35'0 0.0
2017-Nov-07 00:00N 45°24' W 073°35'170.0
2017-Nov-07 00:00N 45°24' W 073°36'1 1.2 300 / 5 5.3 6.2
2017-Nov-06 23:24N 45°24' W 073°35'1 1.7
2017-Nov-06 23:00N 45°24' W 073°36'0 0.0 300 / 5 6.4 7.4
2017-Nov-06 22:00N 45°24' W 073°36'1 3.7 320 / 5 7.0 8.0
2017-Nov-06 21:48N 45°24' W 073°35'0 0.0
2017-Nov-06 21:30N 45°24' W 073°35'1 1.4
2017-Nov-06 21:00N 45°24' W 073°36'1 0.9 310 / 5 9.010.2
2017-Nov-06 20:12N 45°24' W 073°35'1 3.3
2017-Nov-06 20:00N 45°24' W 073°36'0 0.0 310 / 6 9.911.2
2017-Nov-06 19:00N 45°24' W 073°36'0 0.0 290 / 11 11.112.6
2017-Nov-06 18:00N 45°24' W 073°36'0 0.0 310 / 5 13.014.5
2017-Nov-06 17:00N 45°24' W 073°36'0 0.0 290 / 9 12.113.5
2017-Nov-06 16:00N 45°24' W 073°36'0 0.0 240 / 5 12.914.4
2017-Nov-06 15:00N 45°24' W 073°36'0 0.0 240 / 5 13.014.5
2017-Nov-06 14:00N 45°24' W 073°36'0 0.0 250 / 6 13.114.6
2017-Nov-06 13:00N 45°24' W 073°36'0 0.0 260 / 8 14.315.8
2017-Nov-06 12:00N 45°24' W 073°36'0 0.0 210 / 8 14.215.8
2017-Nov-06 11:00N 45°24' W 073°36'0 0.0 180 / 8 13.414.9
2017-Nov-06 10:00N 45°24' W 073°36'0 0.0 180 / 7 13.114.6
2017-Nov-06 09:00N 45°24' W 073°36'0 0.0 180 / 9 13.214.7
2017-Nov-06 08:00N 45°24' W 073°36'0 0.0 190 / 7 13.114.6
2017-Nov-06 07:00N 45°24' W 073°36'0 0.0 170 / 10 13.114.6
2017-Nov-06 06:00N 45°24' W 073°36'0 0.0 180 / 10 12.614.1
2017-Nov-06 05:00N 45°24' W 073°36'0 0.0 170 / 11 12.113.5
2017-Nov-06 04:00N 45°24' W 073°36'0 0.0 170 / 12 11.913.4
2017-Nov-06 03:00N 45°24' W 073°36'0 0.0 170 / 11 12.514.0
2017-Nov-06 02:00N 45°24' W 073°36'0 0.0 160 / 12 11.913.4
2017-Nov-06 01:00N 45°24' W 073°36'1 1.1 160 / 12 11.212.6
2017-Nov-06 00:21N 45°24' W 073°35'1 1.9
2017-Nov-06 00:00N 45°24' W 073°36'1 5.0 170 / 12 10.912.312.9
2017-Nov-05 23:51N 45°24' W 073°35'0 0.0
2017-Nov-05 23:27N 45°24' W 073°35'1 1.5
2017-Nov-05 23:00N 45°24' W 073°36'1 5.0 170 / 14 11.312.813.0
2017-Nov-05 22:51N 45°24' W 073°35'0 0.0
2017-Nov-05 22:29N 45°24' W 073°35'1 1.4
2017-Nov-05 22:00N 45°24' W 073°36'186.9 160 / 13 11.513.0
2017-Nov-05 21:59N 45°24' W 073°35'2 4.2
2017-Nov-05 21:30N 45°24' W 073°38'3 6.4
2017-Nov-05 21:00N 45°25' W 073°43'152.3
2017-Nov-05 21:00N 45°24' W 073°42'3 5.6 120 / 12 11.212.613.3
2017-Nov-05 20:30N 45°24' W 073°46'4 8.6
2017-Nov-05 20:00N 45°25' W 073°40'2116.9
2017-Nov-05 20:00N 45°24' W 073°42'5 9.4 160 / 10 10.111.412.9
2017-Nov-05 19:31N 45°24' W 073°36'0 0.6
2017-Nov-05 19:01N 45°24' W 073°35'143.4
2017-Nov-05 19:00N 45°24' W 073°36'1 1.5 170 / 15 9.811.112.7
2017-Nov-05 18:30N 45°24' W 073°35'0 0.0
2017-Nov-05 18:00N 45°24' W 073°35'149.7
2017-Nov-05 18:00N 45°24' W 073°36'1 1.5 160 / 14 8.810.112.7
2017-Nov-05 17:30N 45°24' W 073°35'0 0.0
2017-Nov-05 17:00N 45°24' W 073°35'158.5
2017-Nov-05 17:00N 45°24' W 073°36'1 1.5 170 / 17 10.011.212.7
2017-Nov-05 16:31N 45°24' W 073°35'1 1.3
2017-Nov-05 16:00N 45°24' W 073°34'183.3
2017-Nov-05 16:00N 45°24' W 073°36'2 3.3 160 / 16 9.510.812.7
2017-Nov-05 15:30N 45°24' W 073°34'3 5.4
2017-Nov-05 15:00N 45°24' W 073°30'124.5 140 / 12 7.7 8.912.8
2017-Nov-05 14:56N 45°25' W 073°30'5 5.0
2017-Nov-05 14:00N 45°30' W 073°30'0 0.0 120 / 8 6.0 7.112.4
2017-Nov-05 13:00N 45°30' W 073°30'6 6.0 110 / 6 5.0 6.212.7
2017-Nov-05 12:00N 45°36' W 073°30'0 0.0 110 / 6 4.8 5.913.0
2017-Nov-05 11:00N 45°36' W 073°30'0 0.0 090 / 6 3.6 4.7
2017-Nov-05 10:00N 45°36' W 073°30'0 0.0 080 / 5 3.3 4.3
2017-Nov-05 09:00N 45°36' W 073°30'0 0.0 070 / 5 3.7 4.7
2017-Nov-05 08:00N 45°36' W 073°30'0 0.0 070 / 4 3.6 4.6
2017-Nov-05 07:00N 45°36' W 073°30'0 0.0 070 / 4 3.3 4.212.9
2017-Nov-05 06:00N 45°36' W 073°30'0 0.0 080 / 6 2.9 3.913.0
2017-Nov-05 05:00N 45°36' W 073°30'7 7.3 070 / 5 2.9 3.813.3
2017-Nov-05 04:00N 45°42' W 073°24'7 7.3 060 / 11 1.7 2.614.0
2017-Nov-05 03:00N 45°48' W 073°18'1312.7 120 / 9 2.6 3.514.0
2017-Nov-05 02:00N 46°00' W 073°12'1413.9 080 / 12 3.2 4.013.7
2017-Nov-05 01:00N 46°06' W 072°54'7 7.3 080 / 11 3.6 4.413.7
2017-Nov-05 00:00N 46°12' W 072°48'   040 / 15 3.4 4.213.7
Track history (hours):
 
Tides and Currents Weather Stations Pressure Air Temp Water Temp Dewpoint Dewpoint Depression Visibility Wind Speed Wind Dir Waves Ship Positions

Camilla Desgagnes

Last reported at 2017-Nov-15 00:00 UTC. Time now 2017-Nov-21 06:25 UTC.
Position N 45°30' W 073°30'.

Length 133 m; draft 5 m.

Type: Cargo ship. MMSI: 316003543.

Wind from 020 at 2 knots

Air temperature 2.8 ° C
Dewpoint 3.0 ° C

Date/timePositionNaut miles runAvg speedWind from/ knotsBaromVisibWave heightAir tempDewpointWater temp
2017-Nov-15 00:00N 45°30' W 073°30'0 0.0 020 / 2 2.8 3.0
2017-Nov-14 23:00N 45°30' W 073°30'0 0.0 360 / 4 2.9 3.1
2017-Nov-14 22:00N 45°30' W 073°30'0 0.0 350 / 4 3.1 3.3
2017-Nov-14 21:00N 45°30' W 073°30'0 0.0 350 / 3 3.1 3.3
2017-Nov-14 20:00N 45°30' W 073°30'0 0.0 350 / 5 3.0 3.2
2017-Nov-14 19:00N 45°30' W 073°30'0 0.0 360 / 4 2.8 3.0
2017-Nov-14 18:00N 45°30' W 073°30'0 0.0 350 / 4 2.6 2.8
2017-Nov-14 17:00N 45°30' W 073°30'0 0.0 360 / 5 2.2 2.4
2017-Nov-14 16:00N 45°30' W 073°30'0 0.0 360 / 5 1.9 2.0
2017-Nov-14 15:00N 45°30' W 073°30'0 0.0 010 / 5 1.6 1.8
2017-Nov-14 14:00N 45°30' W 073°30'0 0.0 360 / 4 1.3 1.5
2017-Nov-14 13:00N 45°30' W 073°30'0 0.0 360 / 4 1.1 1.3
2017-Nov-14 12:00N 45°30' W 073°30'0 0.0 010 / 4 1.0 1.2
2017-Nov-14 11:00N 45°30' W 073°30'0 0.0 010 / 3 1.0 1.2
2017-Nov-14 09:00N 45°30' W 073°30'0 0.0 010 / 5 0.9 1.0
2017-Nov-14 08:00N 45°30' W 073°30'0 0.0 360 / 5 0.8 0.9
2017-Nov-14 07:00N 45°30' W 073°30'0 0.0 010 / 3 0.6 0.8
2017-Nov-14 06:00N 45°30' W 073°30'0 0.0 010 / 3 0.6 0.8
2017-Nov-14 05:00N 45°30' W 073°30'0 0.0 360 / 3 0.5 0.7
2017-Nov-14 04:00N 45°30' W 073°30'0 0.0 010 / 3 0.7 0.8
2017-Nov-14 03:00N 45°30' W 073°30'0 0.0 010 / 4 1.0 1.0
2017-Nov-14 02:00N 45°30' W 073°30'0 0.0 350 / 5 0.9 1.0
2017-Nov-14 01:00N 45°30' W 073°30'0 0.0 360 / 4 0.9 1.0
2017-Nov-14 00:00N 45°30' W 073°30'0 0.0 360 / 4 0.6 0.8
2017-Nov-13 23:00N 45°30' W 073°30'0 0.0 010 / 3 0.8 0.9
2017-Nov-13 22:00N 45°30' W 073°30'0 0.0 350 / 5 0.7 0.8
2017-Nov-13 21:00N 45°30' W 073°30'0 0.0 010 / 3 0.8 1.0
2017-Nov-13 20:00N 45°30' W 073°30'0 0.0 010 / 2 0.9 1.1
2017-Nov-13 19:00N 45°30' W 073°30'0 0.0 350 / 5 0.4 0.6
2017-Nov-13 18:00N 45°30' W 073°30'0 0.0 350 / 5 -0.0 0.2
2017-Nov-13 17:00N 45°30' W 073°30'0 0.0 360 / 4 -0.3-0.0
2017-Nov-13 16:00N 45°30' W 073°30'0 0.0 360 / 5 -0.7-0.5
2017-Nov-13 15:00N 45°30' W 073°30'0 0.0 360 / 6 -0.9-0.6
2017-Nov-13 14:00N 45°30' W 073°30'0 0.0 360 / 5 -1.3-1.1
2017-Nov-13 13:00N 45°30' W 073°30'0 0.0 350 / 5 -1.9-1.6
2017-Nov-13 12:00N 45°30' W 073°30'0 0.0 340 / 6 -2.1-1.9
2017-Nov-13 11:00N 45°30' W 073°30'0 0.0 340 / 5 -2.5-2.3
2017-Nov-13 10:00N 45°30' W 073°30'0 0.0 340 / 5 -2.1-1.8
2017-Nov-13 09:00N 45°30' W 073°30'0 0.0 340 / 3 -1.9-1.6
2017-Nov-13 08:00N 45°30' W 073°30'0 0.0 340 / 4 -1.8-1.6
2017-Nov-13 07:00N 45°30' W 073°30'0 0.0 340 / 4 -1.5-1.3
2017-Nov-13 06:00N 45°30' W 073°30'0 0.0 350 / 3 -0.8-0.6
2017-Nov-13 05:00N 45°30' W 073°30'0 0.0 360 / 4 -0.6-0.5
2017-Nov-13 04:00N 45°30' W 073°30'0 0.0 360 / 1 -0.1-0.0
2017-Nov-13 03:00N 45°30' W 073°30'0 0.0 020 / 1 -0.1-0.0
2017-Nov-13 02:00N 45°30' W 073°30'0 0.0 110 / 2 0.5 0.6
2017-Nov-13 01:00N 45°30' W 073°30'0 0.0 040 / 1 0.2 0.3
2017-Nov-13 00:00N 45°30' W 073°30'0 0.0 360 / 1 0.6 0.7
2017-Nov-12 23:00N 45°30' W 073°30'0 0.0 040 / 1 0.9 1.0
2017-Nov-12 22:00N 45°30' W 073°30'0 0.0 090 / 2 1.8 1.8
2017-Nov-12 21:00N 45°30' W 073°30'0 0.0 130 / 1 2.3 2.3
2017-Nov-12 20:00N 45°30' W 073°30'0 0.0 110 / 1 2.1 2.1
2017-Nov-12 19:00N 45°30' W 073°30'0 0.0 040 / 1 1.8 1.9
2017-Nov-12 18:00N 45°30' W 073°30'0 0.0 030 / 3 1.4 1.5
2017-Nov-12 17:00N 45°30' W 073°30'0 0.0 340 / 3 0.3 0.4
2017-Nov-12 16:00N 45°30' W 073°30'0 0.0 090 / 2 -0.5-0.3
2017-Nov-12 15:00N 45°30' W 073°30'0 0.0 360 / 2 -1.3-1.2
2017-Nov-12 14:00N 45°30' W 073°30'0 0.0 090 / 2 -2.1-2.0
2017-Nov-12 13:00N 45°30' W 073°30'0 0.0 070 / 2 -2.4-2.3
2017-Nov-12 12:00N 45°30' W 073°30'0 0.0 120 / 3 -2.6-2.5
2017-Nov-12 11:00N 45°30' W 073°30'0 0.0 110 / 2 -2.7-2.6
2017-Nov-12 10:00N 45°30' W 073°30'0 0.0 130 / 2 -2.8-2.7
2017-Nov-12 09:00N 45°30' W 073°30'0 0.0 150 / 4 -2.9-2.8
2017-Nov-12 08:00N 45°30' W 073°30'0 0.0 120 / 3 -3.2-3.1
2017-Nov-12 07:00N 45°30' W 073°30'0 0.0 110 / 3 -3.0-2.9
2017-Nov-12 06:00N 45°30' W 073°30'0 0.0 120 / 4 -3.2-3.1
2017-Nov-12 05:00N 45°30' W 073°30'0 0.0 120 / 4 -3.0-2.8
2017-Nov-12 04:00N 45°30' W 073°30'0 0.0 150 / 3 -2.4-2.3
2017-Nov-12 03:00N 45°30' W 073°30'0 0.0 200 / 1 -2.4-2.3
2017-Nov-12 02:00N 45°30' W 073°30'0 0.0 210 / 2 -2.3-2.2
2017-Nov-12 01:00N 45°30' W 073°30'0 0.0 190 / 4 -3.1-2.9
2017-Nov-12 00:00N 45°30' W 073°30'0 0.0 210 / 3 -2.5-2.4
2017-Nov-11 23:00N 45°30' W 073°30'0 0.0 200 / 3 -2.8-2.7
2017-Nov-11 22:00N 45°30' W 073°30'0 0.0 200 / 5 -2.5-2.4
2017-Nov-11 21:00N 45°30' W 073°30'0 0.0 210 / 3 -1.6-1.5
2017-Nov-11 20:00N 45°30' W 073°30'0 0.0 210 / 4 -1.5-1.4
2017-Nov-11 19:00N 45°30' W 073°30'0 0.0 240 / 4 -1.6-1.6
2017-Nov-11 18:00N 45°30' W 073°30'0 0.0 210 / 4 -1.9-1.8
2017-Nov-11 17:00N 45°30' W 073°30'0 0.0 230 / 4 -2.8-2.7
2017-Nov-11 16:00N 45°30' W 073°30'0 0.0 240 / 5 -3.9-3.8
2017-Nov-11 15:00N 45°30' W 073°30'0 0.0 230 / 5 -5.5-5.4
2017-Nov-11 14:00N 45°30' W 073°30'0 0.0 250 / 6 -6.6-6.5
2017-Nov-11 13:00N 45°30' W 073°30'0 0.0 240 / 8 -7.4-7.3
2017-Nov-11 12:00N 45°30' W 073°30'0 0.0 240 / 6 -8.2-8.2
2017-Nov-11 11:00N 45°30' W 073°30'0 0.0 240 / 6 -8.0-7.9
2017-Nov-11 10:00N 45°30' W 073°30'0 0.0 240 / 6 -8.0-7.9
2017-Nov-11 09:00N 45°30' W 073°30'0 0.0 250 / 6 -8.1-8.0
2017-Nov-11 08:00N 45°30' W 073°30'0 0.0 250 / 5 -8.2-8.1
2017-Nov-11 07:00N 45°30' W 073°30'0 0.0 270 / 6 -8.3-8.2
2017-Nov-10 23:00N 45°30' W 073°30'0 0.0 290 / 9 -4.5-4.4
2017-Nov-10 22:00N 45°30' W 073°30'0 0.0 290 / 10 -4.3-4.2
2017-Nov-10 21:00N 45°30' W 073°30'0 0.0 270 / 6 -4.1-4.1
2017-Nov-10 20:00N 45°30' W 073°30'0 0.0 290 / 11 -4.3-4.3
2017-Nov-10 19:00N 45°30' W 073°30'0 0.0 270 / 10 -4.8-4.7
2017-Nov-10 18:00N 45°30' W 073°30'0 0.0 300 / 8 -5.1-5.1
2017-Nov-10 17:00N 45°30' W 073°30'0 0.0 290 / 13 -5.7-5.7
2017-Nov-10 16:00N 45°30' W 073°30'0 0.0 260 / 8 -6.3-6.3
2017-Nov-10 15:00N 45°30' W 073°30'0 0.0 270 / 7 -6.8-6.7
2017-Nov-10 14:00N 45°30' W 073°30'0 0.0 280 / 11 -7.8-7.8
2017-Nov-10 13:00N 45°30' W 073°30'0 0.0 260 / 9 -7.6-7.5
2017-Nov-10 12:00N 45°30' W 073°30'0 0.0 270 / 12 -7.6-7.5
2017-Nov-10 11:00N 45°30' W 073°30'0 0.0 260 / 10 -6.1-6.0
2017-Nov-10 10:00N 45°30' W 073°30'0 0.0 270 / 12 -5.1-5.0
2017-Nov-10 09:00N 45°30' W 073°30'0 0.0 290 / 9 -3.4-3.2
2017-Nov-10 08:00N 45°30' W 073°30'0 0.0 270 / 9 -1.9-1.7
2017-Nov-10 07:00N 45°30' W 073°30'0 0.0 270 / 10 0.2 0.6
2017-Nov-10 06:00N 45°30' W 073°30'0 0.0 260 / 8 1.2 1.6
2017-Nov-10 05:00N 45°30' W 073°30'0 0.0 280 / 8 1.3 1.9
2017-Nov-10 04:00N 45°30' W 073°30'0 0.0 230 / 7 5.0 5.7
2017-Nov-10 03:00N 45°30' W 073°30'0 0.0 170 / 9 7.2 7.8
2017-Nov-10 02:00N 45°30' W 073°30'0 0.0 170 / 11 7.0 7.6
2017-Nov-10 01:00N 45°30' W 073°30'0 0.0 180 / 8 6.7 7.3
2017-Nov-10 00:00N 45°30' W 073°30'0 0.0 180 / 6 6.7 7.2
2017-Nov-09 23:00N 45°30' W 073°30'0 0.0 150 / 8 6.8 7.4
2017-Nov-09 22:00N 45°30' W 073°30'0 0.0 150 / 10 6.8 7.4
2017-Nov-09 14:00N 45°30' W 073°30'0 0.0 180 / 5 4.5 5.0
2017-Nov-09 13:00N 45°30' W 073°30'0 0.0 160 / 4 3.8 4.3
2017-Nov-09 12:00N 45°30' W 073°30'0 0.0 190 / 1 2.9 3.4
2017-Nov-09 11:00N 45°30' W 073°30'0 0.0 200 / 2 2.4 2.9
2017-Nov-09 10:00N 45°30' W 073°30'0 0.0 200 / 2 2.7 3.2
2017-Nov-09 09:00N 45°30' W 073°30'0 0.0 220 / 1 3.0 3.5
2017-Nov-09 08:00N 45°30' W 073°30'0 0.0 200 / 3 3.0 3.5
2017-Nov-09 07:00N 45°30' W 073°30'0 0.0 220 / 1 3.6 4.1
2017-Nov-09 06:00N 45°30' W 073°30'0 0.0 200 / 3 3.5 4.1
2017-Nov-09 05:00N 45°30' W 073°30'0 0.0 210 / 2 4.4 5.0
2017-Nov-09 04:00N 45°30' W 073°30'0 0.0 230 / 2 4.9 5.5
2017-Nov-09 03:00N 45°30' W 073°30'0 0.0 200 / 3 4.9 5.5
2017-Nov-09 01:00N 45°30' W 073°30'0 0.0 200 / 2 5.1 5.7
2017-Nov-09 00:00N 45°30' W 073°30'0 0.0 150 / 3 5.7 6.3
2017-Nov-08 23:00N 45°30' W 073°30'0 0.0 200 / 2 5.7 6.4
2017-Nov-08 22:00N 45°30' W 073°30'0 0.0 200 / 3 5.6 6.2
2017-Nov-08 21:00N 45°30' W 073°30'0 0.0 220 / 3 6.7 7.3
2017-Nov-08 20:00N 45°30' W 073°30'0 0.0 220 / 3 6.4 7.0
2017-Nov-08 19:00N 45°30' W 073°30'0 0.0 200 / 5 5.5 6.1
2017-Nov-08 18:00N 45°30' W 073°30'0 0.0 170 / 6 5.5 6.0
2017-Nov-08 17:00N 45°30' W 073°30'0 0.0 170 / 3 4.6 5.2
2017-Nov-08 16:00N 45°30' W 073°30'0 0.0 200 / 5 3.4 3.9
2017-Nov-08 15:00N 45°30' W 073°30'0 0.0 170 / 4 2.5 3.1
2017-Nov-08 14:00N 45°30' W 073°30'0 0.0 160 / 4 1.9 2.5
2017-Nov-08 13:00N 45°30' W 073°30'0 0.0 170 / 4 1.9 2.5
2017-Nov-08 12:00N 45°30' W 073°30'0 0.0 160 / 3 1.8 2.5
2017-Nov-08 11:00N 45°30' W 073°30'0 0.0 160 / 3 1.1 1.7
2017-Nov-08 10:00N 45°30' W 073°30'0 0.0 150 / 4 1.1 1.7
2017-Nov-08 09:00N 45°30' W 073°30'0 0.0 140 / 3 1.5 2.1
2017-Nov-08 08:00N 45°30' W 073°30'0 0.0 210 / 1 1.5 2.1
2017-Nov-08 07:00N 45°30' W 073°30'0 0.0 200 / 2 1.4 1.9
2017-Nov-08 06:00N 45°30' W 073°30'0 0.0 210 / 1 1.6 2.1
2017-Nov-08 05:00N 45°30' W 073°30'0 0.0 230 / 2 1.8 2.3
2017-Nov-08 04:00N 45°30' W 073°30'0 0.0 240 / 1 2.4 3.0
2017-Nov-08 03:00N 45°30' W 073°30'0 0.0 240 / 2 2.3 2.912.3
2017-Nov-08 02:00N 45°30' W 073°30'0 0.0 210 / 3 2.6 3.212.3
2017-Nov-08 01:00N 45°30' W 073°30'0 0.0 190 / 4 3.2 3.812.0
2017-Nov-08 00:00N 45°30' W 073°30'124.4 240 / 4 3.5 4.012.1
2017-Nov-07 23:56N 45°31' W 073°31'1 1.9
2017-Nov-07 23:12N 45°30' W 073°31'0 2.0
2017-Nov-07 23:00N 45°29' W 073°31'1118.2
2017-Nov-07 23:00N 45°30' W 073°30'2 3.5 240 / 5 3.4 4.012.1
2017-Nov-07 22:31N 45°28' W 073°30'1 1.8
2017-Nov-07 22:00N 45°27' W 073°30'3162.9
2017-Nov-07 22:00N 45°30' W 073°30'4 7.9 230 / 4 3.6 4.211.8
2017-Nov-07 21:31N 45°26' W 073°30'2 3.5
2017-Nov-07 21:01N 45°25' W 073°31'167.6
2017-Nov-07 21:00N 45°24' W 073°30'3 5.3 290 / 4 4.7 5.312.2
2017-Nov-07 20:30N 45°24' W 073°34'0 0.5
2017-Nov-07 20:01N 45°24' W 073°34'291.0
2017-Nov-07 20:00N 45°24' W 073°36'1 1.8 250 / 5 4.5 5.112.1
2017-Nov-07 19:30N 45°24' W 073°35'0 0.5
2017-Nov-07 19:00N 45°24' W 073°35'170.0
2017-Nov-07 19:00N 45°24' W 073°36'1 0.7 250 / 7 4.3 4.9
2017-Nov-07 18:03N 45°24' W 073°35'111.7
2017-Nov-07 18:00N 45°24' W 073°36'1 5.0 270 / 5 3.4 4.0
2017-Nov-07 17:51N 45°24' W 073°35'0 0.0
2017-Nov-07 17:27N 45°24' W 073°35'1 1.5
2017-Nov-07 17:00N 45°24' W 073°36'117.4 260 / 4 3.3 3.9
2017-Nov-07 16:57N 45°24' W 073°35'0 0.0
2017-Nov-07 16:27N 45°24' W 073°35'1 1.5
2017-Nov-07 16:00N 45°24' W 073°36'1 0.9 270 / 3 2.8 3.4
2017-Nov-07 15:12N 45°24' W 073°35'1 3.3
2017-Nov-07 15:00N 45°24' W 073°36'1 7.8 330 / 2 2.7 3.3
2017-Nov-07 14:54N 45°24' W 073°35'0 0.0
2017-Nov-07 14:12N 45°24' W 073°35'0 0.0
2017-Nov-07 14:00N 45°24' W 073°35'167.7
2017-Nov-07 14:00N 45°24' W 073°36'1 1.4 290 / 2 2.4 3.0
2017-Nov-07 13:30N 45°24' W 073°35'1 1.4
2017-Nov-07 13:00N 45°24' W 073°36'1 7.7 330 / 6 1.4 2.0
2017-Nov-07 12:54N 45°24' W 073°35'0 0.0
2017-Nov-07 12:30N 45°24' W 073°35'1 1.4
2017-Nov-07 12:00N 45°24' W 073°36'1 3.7 300 / 3 1.9 2.6
2017-Nov-07 11:48N 45°24' W 073°35'0 0.0
2017-Nov-07 11:06N 45°24' W 073°35'1 6.4
2017-Nov-07 11:00N 45°24' W 073°36'1 7.8 320 / 2 2.0 2.6
2017-Nov-07 10:54N 45°24' W 073°35'0 0.0
2017-Nov-07 10:18N 45°24' W 073°35'0 0.0
2017-Nov-07 10:00N 45°24' W 073°35'167.7
2017-Nov-07 10:00N 45°24' W 073°36'1 1.4 300 / 3 2.2 2.8
2017-Nov-07 09:30N 45°24' W 073°35'0 0.0
2017-Nov-07 09:00N 45°24' W 073°35'168.4
2017-Nov-07 09:00N 45°24' W 073°36'1 1.4 300 / 4 2.3 3.0
2017-Nov-07 08:30N 45°24' W 073°35'0 0.0
2017-Nov-07 08:00N 45°24' W 073°35'169.6
2017-Nov-07 08:00N 45°24' W 073°36'1 1.4 320 / 2 2.0 2.7
2017-Nov-07 07:30N 45°24' W 073°35'0 0.0
2017-Nov-07 07:00N 45°24' W 073°35'167.7
2017-Nov-07 07:00N 45°24' W 073°36'1 1.4 330 / 5 2.1 2.8
2017-Nov-07 06:30N 45°24' W 073°35'0 0.0
2017-Nov-07 06:00N 45°24' W 073°35'168.0
2017-Nov-07 06:00N 45°24' W 073°36'1 0.9 320 / 3 2.5 3.2
2017-Nov-07 05:12N 45°24' W 073°35'0 0.0
2017-Nov-07 05:00N 45°24' W 073°35'169.9
2017-Nov-07 05:00N 45°24' W 073°36'1 1.2 320 / 3 2.6 3.4
2017-Nov-07 04:24N 45°24' W 073°35'0 0.0
2017-Nov-07 04:00N 45°24' W 073°35'167.7
2017-Nov-07 04:00N 45°24' W 073°36'1 1.2 320 / 4 3.0 3.8
2017-Nov-07 03:24N 45°24' W 073°35'0 0.0
2017-Nov-07 03:00N 45°24' W 073°35'169.6
2017-Nov-07 03:00N 45°24' W 073°36'1 1.4 320 / 4 3.5 4.3
2017-Nov-07 02:30N 45°24' W 073°35'1 1.4
2017-Nov-07 02:00N 45°24' W 073°36'1 1.8 320 / 3 3.8 4.6
2017-Nov-07 01:36N 45°24' W 073°35'0 0.0
2017-Nov-07 01:30N 45°24' W 073°35'0 0.0
2017-Nov-07 01:00N 45°24' W 073°35'170.0
2017-Nov-07 01:00N 45°24' W 073°36'1 1.2 300 / 5 4.6 5.4
2017-Nov-07 00:24N 45°24' W 073°35'0 0.0
2017-Nov-07 00:00N 45°24' W 073°35'170.0
2017-Nov-07 00:00N 45°24' W 073°36'1 1.2 300 / 5 5.3 6.2
2017-Nov-06 23:24N 45°24' W 073°35'1 1.7
2017-Nov-06 23:00N 45°24' W 073°36'0 0.0 300 / 5 6.4 7.4
2017-Nov-06 22:00N 45°24' W 073°36'1 3.7 320 / 5 7.0 8.0
2017-Nov-06 21:48N 45°24' W 073°35'0 0.0
2017-Nov-06 21:30N 45°24' W 073°35'1 1.4
2017-Nov-06 21:00N 45°24' W 073°36'1 0.9 310 / 5 9.010.2
2017-Nov-06 20:12N 45°24' W 073°35'1 3.3
2017-Nov-06 20:00N 45°24' W 073°36'0 0.0 310 / 6 9.911.2
2017-Nov-06 19:00N 45°24' W 073°36'0 0.0 290 / 11 11.112.6
2017-Nov-06 18:00N 45°24' W 073°36'0 0.0 310 / 5 13.014.5
2017-Nov-06 17:00N 45°24' W 073°36'0 0.0 290 / 9 12.113.5
2017-Nov-06 16:00N 45°24' W 073°36'0 0.0 240 / 5 12.914.4
2017-Nov-06 15:00N 45°24' W 073°36'0 0.0 240 / 5 13.014.5
2017-Nov-06 14:00N 45°24' W 073°36'0 0.0 250 / 6 13.114.6
2017-Nov-06 13:00N 45°24' W 073°36'0 0.0 260 / 8 14.315.8
2017-Nov-06 12:00N 45°24' W 073°36'0 0.0 210 / 8 14.215.8
2017-Nov-06 11:00N 45°24' W 073°36'0 0.0 180 / 8 13.414.9
2017-Nov-06 10:00N 45°24' W 073°36'0 0.0 180 / 7 13.114.6
2017-Nov-06 09:00N 45°24' W 073°36'0 0.0 180 / 9 13.214.7
2017-Nov-06 08:00N 45°24' W 073°36'0 0.0 190 / 7 13.114.6
2017-Nov-06 07:00N 45°24' W 073°36'0 0.0 170 / 10 13.114.6
2017-Nov-06 06:00N 45°24' W 073°36'0 0.0 180 / 10 12.614.1
2017-Nov-06 05:00N 45°24' W 073°36'0 0.0 170 / 11 12.113.5
2017-Nov-06 04:00N 45°24' W 073°36'0 0.0 170 / 12 11.913.4
2017-Nov-06 03:00N 45°24' W 073°36'0 0.0 170 / 11 12.514.0
2017-Nov-06 02:00N 45°24' W 073°36'0 0.0 160 / 12 11.913.4
2017-Nov-06 01:00N 45°24' W 073°36'1 1.1 160 / 12 11.212.6
2017-Nov-06 00:21N 45°24' W 073°35'1 1.9
2017-Nov-06 00:00N 45°24' W 073°36'1 5.0 170 / 12 10.912.312.9
2017-Nov-05 23:51N 45°24' W 073°35'0 0.0
2017-Nov-05 23:27N 45°24' W 073°35'1 1.5
2017-Nov-05 23:00N 45°24' W 073°36'1 5.0 170 / 14 11.312.813.0
2017-Nov-05 22:51N 45°24' W 073°35'0 0.0
2017-Nov-05 22:29N 45°24' W 073°35'1 1.4
2017-Nov-05 22:00N 45°24' W 073°36'186.9 160 / 13 11.513.0
2017-Nov-05 21:59N 45°24' W 073°35'2 4.2
2017-Nov-05 21:30N 45°24' W 073°38'3 6.4
2017-Nov-05 21:00N 45°25' W 073°43'152.3
2017-Nov-05 21:00N 45°24' W 073°42'3 5.6 120 / 12 11.212.613.3
2017-Nov-05 20:30N 45°24' W 073°46'4 8.6
2017-Nov-05 20:00N 45°25' W 073°40'2116.9
2017-Nov-05 20:00N 45°24' W 073°42'5 9.4 160 / 10 10.111.412.9
2017-Nov-05 19:31N 45°24' W 073°36'0 0.6
2017-Nov-05 19:01N 45°24' W 073°35'143.4
2017-Nov-05 19:00N 45°24' W 073°36'1 1.5 170 / 15 9.811.112.7
2017-Nov-05 18:30N 45°24' W 073°35'0 0.0
2017-Nov-05 18:00N 45°24' W 073°35'149.7
2017-Nov-05 18:00N 45°24' W 073°36'1 1.5 160 / 14 8.810.112.7
2017-Nov-05 17:30N 45°24' W 073°35'0 0.0
2017-Nov-05 17:00N 45°24' W 073°35'158.5
2017-Nov-05 17:00N 45°24' W 073°36'1 1.5 170 / 17 10.011.212.7
2017-Nov-05 16:31N 45°24' W 073°35'1 1.3
2017-Nov-05 16:00N 45°24' W 073°34'183.3
2017-Nov-05 16:00N 45°24' W 073°36'2 3.3 160 / 16 9.510.812.7
2017-Nov-05 15:30N 45°24' W 073°34'3 5.4
2017-Nov-05 15:00N 45°24' W 073°30'124.5 140 / 12 7.7 8.912.8
2017-Nov-05 14:56N 45°25' W 073°30'5 5.0
2017-Nov-05 14:00N 45°30' W 073°30'0 0.0 120 / 8 6.0 7.112.4
2017-Nov-05 13:00N 45°30' W 073°30'6 6.0 110 / 6 5.0 6.212.7
2017-Nov-05 12:00N 45°36' W 073°30'0 0.0 110 / 6 4.8 5.913.0
2017-Nov-05 11:00N 45°36' W 073°30'0 0.0 090 / 6 3.6 4.7
2017-Nov-05 10:00N 45°36' W 073°30'0 0.0 080 / 5 3.3 4.3
2017-Nov-05 09:00N 45°36' W 073°30'0 0.0 070 / 5 3.7 4.7
2017-Nov-05 08:00N 45°36' W 073°30'0 0.0 070 / 4 3.6 4.6
2017-Nov-05 07:00N 45°36' W 073°30'0 0.0 070 / 4 3.3 4.212.9
2017-Nov-05 06:00N 45°36' W 073°30'0 0.0 080 / 6 2.9 3.913.0
2017-Nov-05 05:00N 45°36' W 073°30'7 7.3 070 / 5 2.9 3.813.3
2017-Nov-05 04:00N 45°42' W 073°24'7 7.3 060 / 11 1.7 2.614.0
2017-Nov-05 03:00N 45°48' W 073°18'1312.7 120 / 9 2.6 3.514.0
2017-Nov-05 02:00N 46°00' W 073°12'1413.9 080 / 12 3.2 4.013.7
2017-Nov-05 01:00N 46°06' W 072°54'7 7.3 080 / 11 3.6 4.413.7
2017-Nov-05 00:00N 46°12' W 072°48'   040 / 15 3.4 4.213.7

Dump ship's entire track history